sensor_id;sensor_type;location;lat;lon;timestamp;P1;durP1;ratioP1;P2;durP2;ratioP2
5085;SDS011;4715;51.660;7.082;2023-05-10T00:00:19;1.97;;;1.87;;
5085;SDS011;4715;51.660;7.082;2023-05-10T00:02:42;2.40;;;2.20;;
5085;SDS011;4715;51.660;7.082;2023-05-10T00:05:05;3.40;;;3.20;;
5085;SDS011;4715;51.660;7.082;2023-05-10T00:07:27;3.27;;;3.03;;
5085;SDS011;4715;51.660;7.082;2023-05-10T00:09:49;3.87;;;3.57;;
5085;SDS011;4715;51.660;7.082;2023-05-10T00:12:12;3.60;;;3.40;;
5085;SDS011;4715;51.660;7.082;2023-05-10T00:14:34;4.00;;;3.70;;
5085;SDS011;4715;51.660;7.082;2023-05-10T00:16:56;4.90;;;4.43;;
5085;SDS011;4715;51.660;7.082;2023-05-10T00:19:18;4.50;;;4.13;;
5085;SDS011;4715;51.660;7.082;2023-05-10T00:21:39;4.63;;;4.33;;
5085;SDS011;4715;51.660;7.082;2023-05-10T00:24:01;4.67;;;4.37;;
5085;SDS011;4715;51.660;7.082;2023-05-10T00:26:23;4.90;;;4.50;;
5085;SDS011;4715;51.660;7.082;2023-05-10T00:28:46;5.50;;;5.00;;
5085;SDS011;4715;51.660;7.082;2023-05-10T00:31:08;6.10;;;4.90;;
5085;SDS011;4715;51.660;7.082;2023-05-10T00:33:30;5.20;;;4.70;;
5085;SDS011;4715;51.660;7.082;2023-05-10T00:35:52;5.07;;;4.60;;
5085;SDS011;4715;51.660;7.082;2023-05-10T00:38:13;5.57;;;5.07;;
5085;SDS011;4715;51.660;7.082;2023-05-10T00:40:35;4.70;;;4.30;;
5085;SDS011;4715;51.660;7.082;2023-05-10T00:42:57;4.10;;;3.80;;
5085;SDS011;4715;51.660;7.082;2023-05-10T00:45:22;5.00;;;4.47;;
5085;SDS011;4715;51.660;7.082;2023-05-10T00:47:44;4.67;;;4.27;;
5085;SDS011;4715;51.660;7.082;2023-05-10T00:50:06;4.13;;;3.83;;
5085;SDS011;4715;51.660;7.082;2023-05-10T00:52:29;4.30;;;3.97;;
5085;SDS011;4715;51.660;7.082;2023-05-10T00:54:51;4.57;;;4.17;;
5085;SDS011;4715;51.660;7.082;2023-05-10T00:57:13;5.37;;;4.07;;
5085;SDS011;4715;51.660;7.082;2023-05-10T00:59:35;4.70;;;4.30;;
5085;SDS011;4715;51.660;7.082;2023-05-10T01:01:59;5.13;;;4.63;;
5085;SDS011;4715;51.660;7.082;2023-05-10T01:04:21;4.73;;;4.37;;
5085;SDS011;4715;51.660;7.082;2023-05-10T01:06:45;4.33;;;3.93;;
5085;SDS011;4715;51.660;7.082;2023-05-10T01:09:07;3.70;;;3.40;;
5085;SDS011;4715;51.660;7.082;2023-05-10T01:11:29;3.67;;;3.47;;
5085;SDS011;4715;51.660;7.082;2023-05-10T01:13:52;4.13;;;3.83;;
5085;SDS011;4715;51.660;7.082;2023-05-10T01:16:17;4.27;;;3.90;;
5085;SDS011;4715;51.660;7.082;2023-05-10T01:18:40;4.10;;;3.13;;
5085;SDS011;4715;51.660;7.082;2023-05-10T01:21:06;2.90;;;2.70;;
5085;SDS011;4715;51.660;7.082;2023-05-10T01:23:41;2.70;;;2.50;;
5085;SDS011;4715;51.660;7.082;2023-05-10T01:26:23;2.87;;;2.67;;
5085;SDS011;4715;51.660;7.082;2023-05-10T01:29:17;1.97;;;1.87;;
5085;SDS011;4715;51.660;7.082;2023-05-10T01:32:05;1.80;;;1.70;;
5085;SDS011;4715;51.660;7.082;2023-05-10T01:34:39;2.23;;;2.10;;
5085;SDS011;4715;51.660;7.082;2023-05-10T01:37:09;1.93;;;1.83;;
5085;SDS011;4715;51.660;7.082;2023-05-10T01:39:36;1.33;;;1.23;;
5085;SDS011;4715;51.660;7.082;2023-05-10T01:42:06;3.33;;;1.80;;
5085;SDS011;4715;51.660;7.082;2023-05-10T01:44:33;2.03;;;1.93;;
5085;SDS011;4715;51.660;7.082;2023-05-10T01:46:57;4.17;;;1.93;;
5085;SDS011;4715;51.660;7.082;2023-05-10T01:49:29;1.27;;;1.23;;
5085;SDS011;4715;51.660;7.082;2023-05-10T01:51:57;1.70;;;1.60;;
5085;SDS011;4715;51.660;7.082;2023-05-10T01:54:25;1.40;;;1.30;;
5085;SDS011;4715;51.660;7.082;2023-05-10T01:56:50;1.50;;;1.40;;
5085;SDS011;4715;51.660;7.082;2023-05-10T01:59:18;1.50;;;1.40;;
5085;SDS011;4715;51.660;7.082;2023-05-10T02:01:41;1.40;;;1.30;;
5085;SDS011;4715;51.660;7.082;2023-05-10T02:04:08;1.10;;;1.10;;
5085;SDS011;4715;51.660;7.082;2023-05-10T02:06:33;1.20;;;1.10;;
5085;SDS011;4715;51.660;7.082;2023-05-10T02:08:56;1.43;;;1.33;;
5085;SDS011;4715;51.660;7.082;2023-05-10T02:11:18;1.23;;;1.07;;
5085;SDS011;4715;51.660;7.082;2023-05-10T02:13:42;1.10;;;1.10;;
5085;SDS011;4715;51.660;7.082;2023-05-10T02:16:05;1.30;;;1.20;;
5085;SDS011;4715;51.660;7.082;2023-05-10T02:18:27;1.10;;;1.10;;
5085;SDS011;4715;51.660;7.082;2023-05-10T02:20:51;1.40;;;1.30;;
5085;SDS011;4715;51.660;7.082;2023-05-10T02:23:16;1.10;;;1.00;;
5085;SDS011;4715;51.660;7.082;2023-05-10T02:25:40;0.90;;;0.90;;
5085;SDS011;4715;51.660;7.082;2023-05-10T02:28:04;1.10;;;1.10;;
5085;SDS011;4715;51.660;7.082;2023-05-10T02:30:28;0.90;;;0.90;;
5085;SDS011;4715;51.660;7.082;2023-05-10T02:32:52;1.20;;;1.20;;
5085;SDS011;4715;51.660;7.082;2023-05-10T02:35:14;1.93;;;1.50;;
5085;SDS011;4715;51.660;7.082;2023-05-10T02:37:37;1.13;;;1.03;;
5085;SDS011;4715;51.660;7.082;2023-05-10T02:40:02;1.47;;;1.20;;
5085;SDS011;4715;51.660;7.082;2023-05-10T02:42:26;1.80;;;1.70;;
5085;SDS011;4715;51.660;7.082;2023-05-10T02:44:49;1.70;;;1.60;;
5085;SDS011;4715;51.660;7.082;2023-05-10T02:47:14;3.10;;;2.90;;
5085;SDS011;4715;51.660;7.082;2023-05-10T02:49:36;3.37;;;3.07;;
5085;SDS011;4715;51.660;7.082;2023-05-10T02:51:59;6.20;;;5.60;;
5085;SDS011;4715;51.660;7.082;2023-05-10T02:54:25;5.73;;;5.23;;
5085;SDS011;4715;51.660;7.082;2023-05-10T02:56:53;5.73;;;5.13;;
5085;SDS011;4715;51.660;7.082;2023-05-10T02:59:19;8.10;;;5.87;;
5085;SDS011;4715;51.660;7.082;2023-05-10T03:01:41;6.63;;;5.80;;
5085;SDS011;4715;51.660;7.082;2023-05-10T03:04:03;7.00;;;5.20;;
5085;SDS011;4715;51.660;7.082;2023-05-10T03:06:25;5.33;;;4.50;;
5085;SDS011;4715;51.660;7.082;2023-05-10T03:08:47;6.60;;;5.53;;
5085;SDS011;4715;51.660;7.082;2023-05-10T03:11:14;8.73;;;6.50;;
5085;SDS011;4715;51.660;7.082;2023-05-10T03:13:48;9.23;;;5.80;;
5085;SDS011;4715;51.660;7.082;2023-05-10T03:16:21;6.80;;;5.80;;
5085;SDS011;4715;51.660;7.082;2023-05-10T03:18:50;5.90;;;5.33;;
5085;SDS011;4715;51.660;7.082;2023-05-10T03:21:17;5.17;;;4.67;;
5085;SDS011;4715;51.660;7.082;2023-05-10T03:23:40;6.40;;;5.63;;
5085;SDS011;4715;51.660;7.082;2023-05-10T03:26:05;7.73;;;6.90;;
5085;SDS011;4715;51.660;7.082;2023-05-10T03:28:28;5.87;;;5.27;;
5085;SDS011;4715;51.660;7.082;2023-05-10T03:30:52;7.77;;;6.00;;
5085;SDS011;4715;51.660;7.082;2023-05-10T03:33:14;11.30;;;8.20;;
5085;SDS011;4715;51.660;7.082;2023-05-10T03:35:38;9.80;;;7.70;;
5085;SDS011;4715;51.660;7.082;2023-05-10T03:38:00;10.47;;;7.83;;
5085;SDS011;4715;51.660;7.082;2023-05-10T03:40:22;10.70;;;8.57;;
5085;SDS011;4715;51.660;7.082;2023-05-10T03:42:44;12.47;;;8.80;;
5085;SDS011;4715;51.660;7.082;2023-05-10T03:45:07;11.30;;;8.03;;
5085;SDS011;4715;51.660;7.082;2023-05-10T03:47:31;12.37;;;9.63;;
5085;SDS011;4715;51.660;7.082;2023-05-10T03:49:52;12.20;;;8.30;;
5085;SDS011;4715;51.660;7.082;2023-05-10T03:52:14;13.77;;;9.23;;
5085;SDS011;4715;51.660;7.082;2023-05-10T03:54:36;14.53;;;10.80;;
5085;SDS011;4715;51.660;7.082;2023-05-10T03:56:58;18.30;;;10.90;;
5085;SDS011;4715;51.660;7.082;2023-05-10T03:59:20;17.60;;;11.73;;
5085;SDS011;4715;51.660;7.082;2023-05-10T04:01:42;15.50;;;11.60;;
5085;SDS011;4715;51.660;7.082;2023-05-10T04:04:05;20.13;;;12.53;;
5085;SDS011;4715;51.660;7.082;2023-05-10T04:06:26;18.33;;;12.20;;
5085;SDS011;4715;51.660;7.082;2023-05-10T04:08:48;17.60;;;11.20;;
5085;SDS011;4715;51.660;7.082;2023-05-10T04:11:11;15.70;;;11.53;;
5085;SDS011;4715;51.660;7.082;2023-05-10T04:13:34;18.97;;;11.63;;
5085;SDS011;4715;51.660;7.082;2023-05-10T04:15:55;19.00;;;11.73;;
5085;SDS011;4715;51.660;7.082;2023-05-10T04:18:17;20.30;;;12.43;;
5085;SDS011;4715;51.660;7.082;2023-05-10T04:20:41;15.77;;;10.90;;
5085;SDS011;4715;51.660;7.082;2023-05-10T04:23:02;18.80;;;11.80;;
5085;SDS011;4715;51.660;7.082;2023-05-10T04:25:24;17.83;;;11.87;;
5085;SDS011;4715;51.660;7.082;2023-05-10T04:27:46;17.83;;;12.83;;
5085;SDS011;4715;51.660;7.082;2023-05-10T04:30:08;24.50;;;15.03;;
5085;SDS011;4715;51.660;7.082;2023-05-10T04:32:30;23.73;;;15.17;;
5085;SDS011;4715;51.660;7.082;2023-05-10T04:34:52;24.70;;;16.23;;
5085;SDS011;4715;51.660;7.082;2023-05-10T04:37:15;26.60;;;16.27;;
5085;SDS011;4715;51.660;7.082;2023-05-10T04:39:37;26.30;;;15.97;;
5085;SDS011;4715;51.660;7.082;2023-05-10T04:41:59;23.40;;;14.00;;
5085;SDS011;4715;51.660;7.082;2023-05-10T04:44:22;19.10;;;13.23;;
5085;SDS011;4715;51.660;7.082;2023-05-10T04:46:44;29.60;;;16.43;;
5085;SDS011;4715;51.660;7.082;2023-05-10T04:49:06;25.43;;;16.53;;
5085;SDS011;4715;51.660;7.082;2023-05-10T04:51:28;28.43;;;17.53;;
5085;SDS011;4715;51.660;7.082;2023-05-10T04:53:51;32.80;;;19.50;;
5085;SDS011;4715;51.660;7.082;2023-05-10T04:56:13;29.40;;;17.77;;
5085;SDS011;4715;51.660;7.082;2023-05-10T04:58:36;35.30;;;19.00;;
5085;SDS011;4715;51.660;7.082;2023-05-10T05:01:03;27.93;;;17.27;;
5085;SDS011;4715;51.660;7.082;2023-05-10T05:03:26;32.30;;;19.37;;
5085;SDS011;4715;51.660;7.082;2023-05-10T05:05:48;38.30;;;20.80;;
5085;SDS011;4715;51.660;7.082;2023-05-10T05:08:09;36.73;;;22.50;;
5085;SDS011;4715;51.660;7.082;2023-05-10T05:10:32;38.43;;;21.40;;
5085;SDS011;4715;51.660;7.082;2023-05-10T05:12:55;37.47;;;22.30;;
5085;SDS011;4715;51.660;7.082;2023-05-10T05:15:16;31.03;;;19.53;;
5085;SDS011;4715;51.660;7.082;2023-05-10T05:17:38;34.87;;;20.30;;
5085;SDS011;4715;51.660;7.082;2023-05-10T05:20:00;40.60;;;23.10;;
5085;SDS011;4715;51.660;7.082;2023-05-10T05:22:22;40.97;;;21.33;;
5085;SDS011;4715;51.660;7.082;2023-05-10T05:24:47;32.97;;;20.17;;
5085;SDS011;4715;51.660;7.082;2023-05-10T05:27:13;34.63;;;21.13;;
5085;SDS011;4715;51.660;7.082;2023-05-10T05:29:35;29.03;;;19.27;;
5085;SDS011;4715;51.660;7.082;2023-05-10T05:31:57;27.60;;;16.93;;
5085;SDS011;4715;51.660;7.082;2023-05-10T05:34:19;30.90;;;18.87;;
5085;SDS011;4715;51.660;7.082;2023-05-10T05:36:42;33.53;;;18.77;;
5085;SDS011;4715;51.660;7.082;2023-05-10T05:39:03;30.40;;;18.87;;
5085;SDS011;4715;51.660;7.082;2023-05-10T05:41:25;31.47;;;18.90;;
5085;SDS011;4715;51.660;7.082;2023-05-10T05:43:49;35.47;;;20.00;;
5085;SDS011;4715;51.660;7.082;2023-05-10T05:46:11;32.53;;;19.87;;
5085;SDS011;4715;51.660;7.082;2023-05-10T05:48:33;31.73;;;18.70;;
5085;SDS011;4715;51.660;7.082;2023-05-10T05:50:57;34.33;;;19.93;;
5085;SDS011;4715;51.660;7.082;2023-05-10T05:53:20;36.77;;;20.20;;
5085;SDS011;4715;51.660;7.082;2023-05-10T05:55:50;27.13;;;17.47;;
5085;SDS011;4715;51.660;7.082;2023-05-10T05:58:14;35.70;;;21.50;;
5085;SDS011;4715;51.660;7.082;2023-05-10T06:00:37;39.97;;;22.47;;
5085;SDS011;4715;51.660;7.082;2023-05-10T06:03:01;43.27;;;23.77;;
5085;SDS011;4715;51.660;7.082;2023-05-10T06:05:23;33.83;;;20.70;;
5085;SDS011;4715;51.660;7.082;2023-05-10T06:07:46;32.10;;;18.50;;
5085;SDS011;4715;51.660;7.082;2023-05-10T06:10:08;35.53;;;20.33;;
5085;SDS011;4715;51.660;7.082;2023-05-10T06:12:31;34.77;;;19.07;;
5085;SDS011;4715;51.660;7.082;2023-05-10T06:14:52;30.07;;;18.30;;
5085;SDS011;4715;51.660;7.082;2023-05-10T06:17:16;33.10;;;18.60;;
5085;SDS011;4715;51.660;7.082;2023-05-10T06:19:38;32.90;;;19.10;;
5085;SDS011;4715;51.660;7.082;2023-05-10T06:22:01;30.47;;;16.97;;
5085;SDS011;4715;51.660;7.082;2023-05-10T06:24:24;28.93;;;17.30;;
5085;SDS011;4715;51.660;7.082;2023-05-10T06:26:48;29.53;;;18.37;;
5085;SDS011;4715;51.660;7.082;2023-05-10T06:29:11;24.90;;;16.63;;
5085;SDS011;4715;51.660;7.082;2023-05-10T06:31:34;39.73;;;22.10;;
5085;SDS011;4715;51.660;7.082;2023-05-10T06:34:29;36.67;;;22.27;;
5085;SDS011;4715;51.660;7.082;2023-05-10T06:36:51;38.03;;;21.97;;
5085;SDS011;4715;51.660;7.082;2023-05-10T06:39:13;42.00;;;22.10;;
5085;SDS011;4715;51.660;7.082;2023-05-10T06:41:35;33.77;;;19.60;;
5085;SDS011;4715;51.660;7.082;2023-05-10T06:43:59;34.13;;;19.73;;
5085;SDS011;4715;51.660;7.082;2023-05-10T06:46:20;38.93;;;22.70;;
5085;SDS011;4715;51.660;7.082;2023-05-10T06:48:42;33.97;;;20.53;;
5085;SDS011;4715;51.660;7.082;2023-05-10T06:51:07;40.00;;;21.87;;
5085;SDS011;4715;51.660;7.082;2023-05-10T06:53:29;38.50;;;23.73;;
5085;SDS011;4715;51.660;7.082;2023-05-10T06:55:51;36.90;;;23.10;;
5085;SDS011;4715;51.660;7.082;2023-05-10T06:58:13;41.80;;;23.03;;
5085;SDS011;4715;51.660;7.082;2023-05-10T07:00:35;43.70;;;22.20;;
5085;SDS011;4715;51.660;7.082;2023-05-10T07:03:00;39.50;;;22.00;;
5085;SDS011;4715;51.660;7.082;2023-05-10T07:05:22;28.83;;;18.20;;
5085;SDS011;4715;51.660;7.082;2023-05-10T07:07:45;26.67;;;17.10;;
5085;SDS011;4715;51.660;7.082;2023-05-10T07:10:07;35.53;;;21.60;;
5085;SDS011;4715;51.660;7.082;2023-05-10T07:12:30;32.60;;;20.80;;
5085;SDS011;4715;51.660;7.082;2023-05-10T07:14:52;32.60;;;20.17;;
5085;SDS011;4715;51.660;7.082;2023-05-10T07:17:14;37.33;;;22.03;;
5085;SDS011;4715;51.660;7.082;2023-05-10T07:19:36;48.17;;;25.13;;
5085;SDS011;4715;51.660;7.082;2023-05-10T07:21:58;43.23;;;24.23;;
5085;SDS011;4715;51.660;7.082;2023-05-10T07:24:21;34.60;;;21.80;;
5085;SDS011;4715;51.660;7.082;2023-05-10T07:26:43;34.63;;;21.50;;
5085;SDS011;4715;51.660;7.082;2023-05-10T07:29:05;32.90;;;20.80;;
5085;SDS011;4715;51.660;7.082;2023-05-10T07:31:27;30.33;;;20.77;;
5085;SDS011;4715;51.660;7.082;2023-05-10T07:33:48;36.53;;;22.23;;
5085;SDS011;4715;51.660;7.082;2023-05-10T07:36:10;34.90;;;20.57;;
5085;SDS011;4715;51.660;7.082;2023-05-10T07:38:32;31.10;;;19.70;;
5085;SDS011;4715;51.660;7.082;2023-05-10T07:40:55;32.10;;;17.53;;
5085;SDS011;4715;51.660;7.082;2023-05-10T07:43:17;40.43;;;23.47;;
5085;SDS011;4715;51.660;7.082;2023-05-10T07:45:39;48.43;;;24.60;;
5085;SDS011;4715;51.660;7.082;2023-05-10T07:48:04;35.60;;;21.87;;
5085;SDS011;4715;51.660;7.082;2023-05-10T07:50:27;41.27;;;23.77;;
5085;SDS011;4715;51.660;7.082;2023-05-10T07:52:49;33.33;;;20.70;;
5085;SDS011;4715;51.660;7.082;2023-05-10T07:55:11;36.13;;;21.33;;
5085;SDS011;4715;51.660;7.082;2023-05-10T07:57:34;37.70;;;22.00;;
5085;SDS011;4715;51.660;7.082;2023-05-10T07:59:56;35.00;;;22.40;;
5085;SDS011;4715;51.660;7.082;2023-05-10T08:02:18;34.60;;;21.57;;
5085;SDS011;4715;51.660;7.082;2023-05-10T08:04:40;28.70;;;16.80;;
5085;SDS011;4715;51.660;7.082;2023-05-10T08:07:02;26.77;;;17.67;;
5085;SDS011;4715;51.660;7.082;2023-05-10T08:09:24;28.23;;;18.70;;
5085;SDS011;4715;51.660;7.082;2023-05-10T08:11:46;30.10;;;19.90;;
5085;SDS011;4715;51.660;7.082;2023-05-10T08:14:09;25.50;;;16.90;;
5085;SDS011;4715;51.660;7.082;2023-05-10T08:16:32;28.40;;;17.77;;
5085;SDS011;4715;51.660;7.082;2023-05-10T08:18:54;28.60;;;18.47;;
5085;SDS011;4715;51.660;7.082;2023-05-10T08:21:16;36.10;;;19.93;;
5085;SDS011;4715;51.660;7.082;2023-05-10T08:23:38;33.27;;;20.50;;
5085;SDS011;4715;51.660;7.082;2023-05-10T08:25:59;30.27;;;19.07;;
5085;SDS011;4715;51.660;7.082;2023-05-10T08:28:21;30.60;;;20.00;;
5085;SDS011;4715;51.660;7.082;2023-05-10T08:30:44;31.17;;;20.40;;
5085;SDS011;4715;51.660;7.082;2023-05-10T08:33:06;30.90;;;19.27;;
5085;SDS011;4715;51.660;7.082;2023-05-10T08:35:28;30.17;;;19.63;;
5085;SDS011;4715;51.660;7.082;2023-05-10T08:37:50;38.63;;;21.20;;
5085;SDS011;4715;51.660;7.082;2023-05-10T08:40:12;32.07;;;19.93;;
5085;SDS011;4715;51.660;7.082;2023-05-10T08:42:34;39.83;;;23.00;;
5085;SDS011;4715;51.660;7.082;2023-05-10T08:45:00;32.57;;;20.07;;
5085;SDS011;4715;51.660;7.082;2023-05-10T08:47:24;34.07;;;20.30;;
5085;SDS011;4715;51.660;7.082;2023-05-10T08:49:47;31.43;;;19.67;;
5085;SDS011;4715;51.660;7.082;2023-05-10T08:52:11;36.07;;;20.53;;
5085;SDS011;4715;51.660;7.082;2023-05-10T08:54:36;35.93;;;21.00;;
5085;SDS011;4715;51.660;7.082;2023-05-10T08:56:58;32.07;;;20.93;;
5085;SDS011;4715;51.660;7.082;2023-05-10T08:59:19;30.57;;;20.10;;
5085;SDS011;4715;51.660;7.082;2023-05-10T09:01:42;32.37;;;18.83;;
5085;SDS011;4715;51.660;7.082;2023-05-10T09:04:07;28.50;;;18.57;;
5085;SDS011;4715;51.660;7.082;2023-05-10T09:06:28;29.77;;;18.57;;
5085;SDS011;4715;51.660;7.082;2023-05-10T09:08:52;26.70;;;17.33;;
5085;SDS011;4715;51.660;7.082;2023-05-10T09:11:18;31.10;;;18.60;;
5085;SDS011;4715;51.660;7.082;2023-05-10T09:13:41;27.53;;;17.07;;
5085;SDS011;4715;51.660;7.082;2023-05-10T09:16:04;23.73;;;15.57;;
5085;SDS011;4715;51.660;7.082;2023-05-10T09:18:30;26.33;;;15.70;;
5085;SDS011;4715;51.660;7.082;2023-05-10T09:20:53;21.83;;;13.87;;
5085;SDS011;4715;51.660;7.082;2023-05-10T09:23:15;21.87;;;13.40;;
5085;SDS011;4715;51.660;7.082;2023-05-10T09:25:38;21.60;;;13.93;;
5085;SDS011;4715;51.660;7.082;2023-05-10T09:28:00;19.73;;;13.50;;
5085;SDS011;4715;51.660;7.082;2023-05-10T09:30:23;20.67;;;13.63;;
5085;SDS011;4715;51.660;7.082;2023-05-10T09:32:47;21.90;;;15.27;;
5085;SDS011;4715;51.660;7.082;2023-05-10T09:35:10;17.90;;;12.63;;
5085;SDS011;4715;51.660;7.082;2023-05-10T09:37:34;22.40;;;12.83;;
5085;SDS011;4715;51.660;7.082;2023-05-10T09:39:56;20.00;;;12.17;;
5085;SDS011;4715;51.660;7.082;2023-05-10T09:42:18;22.37;;;15.43;;
5085;SDS011;4715;51.660;7.082;2023-05-10T09:44:39;23.80;;;14.13;;
5085;SDS011;4715;51.660;7.082;2023-05-10T09:47:03;19.90;;;14.60;;
5085;SDS011;4715;51.660;7.082;2023-05-10T09:49:25;23.93;;;13.67;;
5085;SDS011;4715;51.660;7.082;2023-05-10T09:51:47;22.30;;;13.47;;
5085;SDS011;4715;51.660;7.082;2023-05-10T09:54:22;23.83;;;14.20;;
5085;SDS011;4715;51.660;7.082;2023-05-10T09:56:44;19.90;;;12.87;;
5085;SDS011;4715;51.660;7.082;2023-05-10T09:59:07;16.30;;;11.97;;
5085;SDS011;4715;51.660;7.082;2023-05-10T10:01:30;20.47;;;11.83;;
5085;SDS011;4715;51.660;7.082;2023-05-10T10:03:52;19.63;;;12.40;;
5085;SDS011;4715;51.660;7.082;2023-05-10T10:06:18;18.30;;;12.60;;
5085;SDS011;4715;51.660;7.082;2023-05-10T10:08:40;18.23;;;11.43;;
5085;SDS011;4715;51.660;7.082;2023-05-10T10:11:03;14.90;;;10.13;;
5085;SDS011;4715;51.660;7.082;2023-05-10T10:13:26;18.83;;;12.30;;
5085;SDS011;4715;51.660;7.082;2023-05-10T10:15:47;17.67;;;12.07;;
5085;SDS011;4715;51.660;7.082;2023-05-10T10:18:12;22.33;;;13.70;;
5085;SDS011;4715;51.660;7.082;2023-05-10T10:20:35;22.53;;;14.90;;
5085;SDS011;4715;51.660;7.082;2023-05-10T10:22:58;23.50;;;14.83;;
5085;SDS011;4715;51.660;7.082;2023-05-10T10:25:20;24.20;;;14.90;;
5085;SDS011;4715;51.660;7.082;2023-05-10T10:27:47;24.30;;;14.90;;
5085;SDS011;4715;51.660;7.082;2023-05-10T10:30:26;23.27;;;12.77;;
5085;SDS011;4715;51.660;7.082;2023-05-10T10:32:59;18.97;;;13.40;;
5085;SDS011;4715;51.660;7.082;2023-05-10T10:35:31;23.13;;;14.20;;
5085;SDS011;4715;51.660;7.082;2023-05-10T10:37:55;34.23;;;16.53;;
5085;SDS011;4715;51.660;7.082;2023-05-10T10:40:23;25.00;;;15.20;;
5085;SDS011;4715;51.660;7.082;2023-05-10T10:42:48;26.30;;;14.63;;
5085;SDS011;4715;51.660;7.082;2023-05-10T10:45:13;22.20;;;13.17;;
5085;SDS011;4715;51.660;7.082;2023-05-10T10:47:35;24.87;;;15.73;;
5085;SDS011;4715;51.660;7.082;2023-05-10T10:50:04;23.27;;;13.70;;
5085;SDS011;4715;51.660;7.082;2023-05-10T10:52:27;28.20;;;16.17;;
5085;SDS011;4715;51.660;7.082;2023-05-10T10:54:53;27.80;;;17.60;;
5085;SDS011;4715;51.660;7.082;2023-05-10T10:57:20;34.10;;;16.80;;
5085;SDS011;4715;51.660;7.082;2023-05-10T10:59:44;27.83;;;16.90;;
5085;SDS011;4715;51.660;7.082;2023-05-10T11:02:06;24.23;;;16.30;;
5085;SDS011;4715;51.660;7.082;2023-05-10T11:04:28;23.70;;;15.27;;
5085;SDS011;4715;51.660;7.082;2023-05-10T11:07:15;21.57;;;13.03;;
5085;SDS011;4715;51.660;7.082;2023-05-10T11:09:40;18.97;;;14.00;;
5085;SDS011;4715;51.660;7.082;2023-05-10T11:12:07;24.27;;;15.67;;
5085;SDS011;4715;51.660;7.082;2023-05-10T11:14:29;23.20;;;14.03;;
5085;SDS011;4715;51.660;7.082;2023-05-10T11:16:54;23.93;;;14.60;;
5085;SDS011;4715;51.660;7.082;2023-05-10T11:19:16;20.07;;;13.53;;
5085;SDS011;4715;51.660;7.082;2023-05-10T11:21:44;20.40;;;13.40;;
5085;SDS011;4715;51.660;7.082;2023-05-10T11:24:12;23.03;;;13.90;;
5085;SDS011;4715;51.660;7.082;2023-05-10T11:26:35;20.73;;;13.30;;
5085;SDS011;4715;51.660;7.082;2023-05-10T11:28:58;21.17;;;12.57;;
5085;SDS011;4715;51.660;7.082;2023-05-10T11:31:22;16.43;;;11.20;;
5085;SDS011;4715;51.660;7.082;2023-05-10T11:33:49;19.00;;;12.13;;
5085;SDS011;4715;51.660;7.082;2023-05-10T11:36:12;13.37;;;10.30;;
5085;SDS011;4715;51.660;7.082;2023-05-10T11:38:35;14.50;;;11.63;;
5085;SDS011;4715;51.660;7.082;2023-05-10T11:40:57;24.57;;;12.67;;
5085;SDS011;4715;51.660;7.082;2023-05-10T11:43:19;21.40;;;13.00;;
5085;SDS011;4715;51.660;7.082;2023-05-10T11:45:45;20.50;;;12.87;;
5085;SDS011;4715;51.660;7.082;2023-05-10T11:48:07;15.00;;;11.50;;
5085;SDS011;4715;51.660;7.082;2023-05-10T11:50:30;14.50;;;9.17;;
5085;SDS011;4715;51.660;7.082;2023-05-10T11:52:53;11.50;;;9.43;;
5085;SDS011;4715;51.660;7.082;2023-05-10T11:55:15;13.17;;;10.50;;
5085;SDS011;4715;51.660;7.082;2023-05-10T11:57:37;19.73;;;11.03;;
5085;SDS011;4715;51.660;7.082;2023-05-10T12:00:01;17.50;;;12.37;;
5085;SDS011;4715;51.660;7.082;2023-05-10T12:02:25;14.93;;;11.47;;
5085;SDS011;4715;51.660;7.082;2023-05-10T12:04:47;17.40;;;12.80;;
5085;SDS011;4715;51.660;7.082;2023-05-10T12:07:10;17.97;;;12.40;;
5085;SDS011;4715;51.660;7.082;2023-05-10T12:09:32;16.30;;;12.33;;
5085;SDS011;4715;51.660;7.082;2023-05-10T12:11:58;12.77;;;10.30;;
5085;SDS011;4715;51.660;7.082;2023-05-10T12:14:21;12.97;;;10.13;;
5085;SDS011;4715;51.660;7.082;2023-05-10T12:16:44;13.07;;;9.90;;
5085;SDS011;4715;51.660;7.082;2023-05-10T12:19:06;11.83;;;9.87;;
5085;SDS011;4715;51.660;7.082;2023-05-10T12:21:28;14.33;;;11.17;;
5085;SDS011;4715;51.660;7.082;2023-05-10T12:23:53;13.33;;;10.00;;
5085;SDS011;4715;51.660;7.082;2023-05-10T12:26:16;14.33;;;11.20;;
5085;SDS011;4715;51.660;7.082;2023-05-10T12:28:38;14.43;;;10.63;;
5085;SDS011;4715;51.660;7.082;2023-05-10T12:31:00;20.23;;;12.00;;
5085;SDS011;4715;51.660;7.082;2023-05-10T12:33:23;19.17;;;13.27;;
5085;SDS011;4715;51.660;7.082;2023-05-10T12:35:46;15.30;;;11.23;;
5085;SDS011;4715;51.660;7.082;2023-05-10T12:38:22;12.97;;;11.23;;
5085;SDS011;4715;51.660;7.082;2023-05-10T12:40:47;16.10;;;11.67;;
5085;SDS011;4715;51.660;7.082;2023-05-10T12:43:09;14.97;;;11.60;;
5085;SDS011;4715;51.660;7.082;2023-05-10T12:45:31;17.43;;;13.17;;
5085;SDS011;4715;51.660;7.082;2023-05-10T12:47:53;15.63;;;12.33;;
5085;SDS011;4715;51.660;7.082;2023-05-10T12:50:15;17.87;;;13.13;;
5085;SDS011;4715;51.660;7.082;2023-05-10T12:52:37;19.03;;;14.10;;
5085;SDS011;4715;51.660;7.082;2023-05-10T12:54:59;18.50;;;13.80;;
5085;SDS011;4715;51.660;7.082;2023-05-10T12:57:29;18.63;;;10.93;;
5085;SDS011;4715;51.660;7.082;2023-05-10T12:59:51;22.23;;;14.40;;
5085;SDS011;4715;51.660;7.082;2023-05-10T13:02:13;19.60;;;14.37;;
5085;SDS011;4715;51.660;7.082;2023-05-10T13:04:37;13.90;;;11.30;;
5085;SDS011;4715;51.660;7.082;2023-05-10T13:06:59;16.33;;;10.60;;
5085;SDS011;4715;51.660;7.082;2023-05-10T13:09:22;12.30;;;9.70;;
5085;SDS011;4715;51.660;7.082;2023-05-10T13:11:46;11.53;;;8.83;;
5085;SDS011;4715;51.660;7.082;2023-05-10T13:14:10;22.73;;;11.33;;
5085;SDS011;4715;51.660;7.082;2023-05-10T13:16:33;10.90;;;8.07;;
5085;SDS011;4715;51.660;7.082;2023-05-10T13:18:58;10.83;;;8.37;;
5085;SDS011;4715;51.660;7.082;2023-05-10T13:21:19;11.90;;;8.40;;
5085;SDS011;4715;51.660;7.082;2023-05-10T13:23:44;15.23;;;10.30;;
5085;SDS011;4715;51.660;7.082;2023-05-10T13:26:06;10.77;;;9.20;;
5085;SDS011;4715;51.660;7.082;2023-05-10T13:28:29;11.07;;;8.80;;
5085;SDS011;4715;51.660;7.082;2023-05-10T13:30:52;11.20;;;8.67;;
5085;SDS011;4715;51.660;7.082;2023-05-10T13:33:14;13.17;;;9.80;;
5085;SDS011;4715;51.660;7.082;2023-05-10T13:35:37;14.43;;;10.50;;
5085;SDS011;4715;51.660;7.082;2023-05-10T13:38:00;12.83;;;9.10;;
5085;SDS011;4715;51.660;7.082;2023-05-10T13:40:23;12.17;;;9.87;;
5085;SDS011;4715;51.660;7.082;2023-05-10T13:42:45;11.47;;;8.77;;
5085;SDS011;4715;51.660;7.082;2023-05-10T13:45:07;11.13;;;8.90;;
5085;SDS011;4715;51.660;7.082;2023-05-10T13:47:31;10.87;;;8.63;;
5085;SDS011;4715;51.660;7.082;2023-05-10T13:49:53;13.57;;;10.23;;
5085;SDS011;4715;51.660;7.082;2023-05-10T13:52:15;15.90;;;8.90;;
5085;SDS011;4715;51.660;7.082;2023-05-10T13:54:37;9.03;;;7.80;;
5085;SDS011;4715;51.660;7.082;2023-05-10T13:56:58;11.60;;;7.77;;
5085;SDS011;4715;51.660;7.082;2023-05-10T13:59:20;8.20;;;7.40;;
5085;SDS011;4715;51.660;7.082;2023-05-10T14:01:43;14.80;;;9.00;;
5085;SDS011;4715;51.660;7.082;2023-05-10T14:04:06;9.80;;;8.20;;
5085;SDS011;4715;51.660;7.082;2023-05-10T14:06:30;9.07;;;7.27;;
5085;SDS011;4715;51.660;7.082;2023-05-10T14:08:52;7.00;;;6.30;;
5085;SDS011;4715;51.660;7.082;2023-05-10T14:11:13;6.73;;;5.80;;
5085;SDS011;4715;51.660;7.082;2023-05-10T14:13:35;8.53;;;7.47;;
5085;SDS011;4715;51.660;7.082;2023-05-10T14:15:57;11.23;;;9.93;;
5085;SDS011;4715;51.660;7.082;2023-05-10T14:18:20;11.83;;;8.70;;
5085;SDS011;4715;51.660;7.082;2023-05-10T14:20:44;7.97;;;7.27;;
5085;SDS011;4715;51.660;7.082;2023-05-10T14:23:05;11.73;;;8.40;;
5085;SDS011;4715;51.660;7.082;2023-05-10T14:25:27;8.53;;;6.53;;
5085;SDS011;4715;51.660;7.082;2023-05-10T14:27:49;7.87;;;7.07;;
5085;SDS011;4715;51.660;7.082;2023-05-10T14:30:11;6.83;;;6.23;;
5085;SDS011;4715;51.660;7.082;2023-05-10T14:32:33;7.30;;;6.60;;